createdAt,value
2022-12-28T00:00:23.352Z,23.63
2022-12-28T00:00:53.248Z,23.64
2022-12-28T00:01:23.283Z,23.60
2022-12-28T00:01:53.394Z,23.63
2022-12-28T00:02:23.397Z,23.63
2022-12-28T00:02:53.388Z,23.63
2022-12-28T00:03:23.486Z,23.62
2022-12-28T00:03:53.523Z,23.63
2022-12-28T00:04:23.533Z,23.63
2022-12-28T00:04:53.578Z,23.62
2022-12-28T00:05:23.577Z,23.62
2022-12-28T00:05:53.612Z,23.63
2022-12-28T00:06:23.638Z,23.63
2022-12-28T00:06:53.655Z,23.63
2022-12-28T00:07:23.688Z,23.63
2022-12-28T00:07:53.704Z,23.62
2022-12-28T00:08:23.730Z,23.63
2022-12-28T00:08:53.760Z,23.60
2022-12-28T00:09:23.780Z,23.62
2022-12-28T00:09:53.804Z,23.63
2022-12-28T00:11:07.199Z,23.62
2022-12-28T00:11:07.750Z,23.62
2022-12-28T00:11:27.949Z,23.62
2022-12-28T00:11:53.952Z,23.60
2022-12-28T00:12:23.983Z,23.60
2022-12-28T00:12:54.002Z,23.59
2022-12-28T00:13:24.027Z,23.63
2022-12-28T00:13:54.064Z,23.60
2022-12-28T00:14:24.072Z,23.63
2022-12-28T00:14:54.117Z,23.60
2022-12-28T00:15:24.139Z,23.63
2022-12-28T00:15:54.232Z,23.60
2022-12-28T00:16:24.300Z,23.63
2022-12-28T00:16:54.320Z,23.63
2022-12-28T00:17:24.355Z,23.63
2022-12-28T00:17:54.388Z,23.62
2022-12-28T00:18:24.421Z,23.62
2022-12-28T00:18:54.431Z,23.62
2022-12-28T00:19:24.455Z,23.62
2022-12-28T00:19:54.485Z,23.60
2022-12-28T00:20:24.507Z,23.63
2022-12-28T00:20:54.537Z,23.59
2022-12-28T00:21:24.563Z,23.62
2022-12-28T00:21:54.577Z,23.60
2022-12-28T00:22:24.606Z,23.62
2022-12-28T00:22:54.634Z,23.62
2022-12-28T00:23:24.659Z,23.62
2022-12-28T00:23:57.562Z,23.62
2022-12-28T00:24:24.779Z,23.63
2022-12-28T00:24:54.773Z,23.62
2022-12-28T00:25:24.887Z,23.57
2022-12-28T00:25:55.001Z,23.62
2022-12-28T00:26:25.110Z,23.60
2022-12-28T00:26:55.235Z,23.60
2022-12-28T00:27:25.341Z,23.63
2022-12-28T00:27:55.458Z,23.62
2022-12-28T00:28:25.564Z,23.60
2022-12-28T00:29:01.678Z,23.62
2022-12-28T00:29:25.692Z,23.59
2022-12-28T00:29:55.795Z,23.59
2022-12-28T00:30:25.908Z,23.62
2022-12-28T00:30:56.063Z,23.62
2022-12-28T00:31:26.028Z,23.63
2022-12-28T00:31:56.225Z,23.62
2022-12-28T00:32:26.260Z,23.60
2022-12-28T00:32:56.248Z,23.57
2022-12-28T00:33:26.361Z,23.62
2022-12-28T00:33:56.470Z,23.60
2022-12-28T00:34:26.584Z,23.62
2022-12-28T00:34:56.598Z,23.60
2022-12-28T00:35:26.628Z,23.62
2022-12-28T00:35:56.654Z,23.62
2022-12-28T00:37:09.268Z,23.62
2022-12-28T00:37:09.901Z,23.60
2022-12-28T00:37:26.778Z,23.62
2022-12-28T00:37:56.805Z,23.62
2022-12-28T00:38:26.830Z,23.60
2022-12-28T00:38:56.856Z,23.60
2022-12-28T00:39:26.881Z,23.59
2022-12-28T00:39:56.899Z,23.57
2022-12-28T00:40:26.926Z,23.62
2022-12-28T00:40:56.953Z,23.59
2022-12-28T00:41:26.970Z,23.59
2022-12-28T00:41:57.006Z,23.60
2022-12-28T00:42:27.051Z,23.60
2022-12-28T00:42:57.075Z,23.60
2022-12-28T00:43:27.097Z,23.60
2022-12-28T00:43:57.131Z,23.60
2022-12-28T00:44:27.157Z,23.60
2022-12-28T00:44:57.181Z,23.59
2022-12-28T00:45:27.285Z,23.59
2022-12-28T00:45:57.331Z,23.62
2022-12-28T00:46:27.366Z,23.59
2022-12-28T00:46:57.364Z,23.60
2022-12-28T00:47:27.440Z,23.59
2022-12-28T00:47:57.466Z,23.62
2022-12-28T00:48:27.502Z,23.62
2022-12-28T00:48:57.520Z,23.59
2022-12-28T00:49:27.549Z,23.60
2022-12-28T00:49:57.575Z,23.60
2022-12-28T00:50:27.596Z,23.62
2022-12-28T00:50:57.620Z,23.63
2022-12-28T00:51:27.655Z,23.62
2022-12-28T00:51:57.683Z,23.63
2022-12-28T00:52:27.731Z,23.59
2022-12-28T00:52:57.753Z,23.62
2022-12-28T00:53:27.773Z,23.60
2022-12-28T00:53:57.801Z,23.62
2022-12-28T00:54:27.838Z,23.64
2022-12-28T00:54:57.858Z,23.59
2022-12-28T00:55:27.878Z,23.62
2022-12-28T00:55:57.909Z,23.62
2022-12-28T00:56:27.939Z,23.60
2022-12-28T00:56:57.961Z,23.63
2022-12-28T00:57:28.007Z,23.62
2022-12-28T00:57:58.041Z,23.63
2022-12-28T00:58:28.069Z,23.62
2022-12-28T00:58:58.093Z,23.63
2022-12-28T00:59:28.115Z,23.63
2022-12-28T00:59:58.151Z,23.62
2022-12-28T01:00:28.173Z,23.62
2022-12-28T01:00:58.296Z,23.63
2022-12-28T01:01:28.397Z,23.66
2022-12-28T01:01:58.472Z,23.63
2022-12-28T01:02:28.422Z,23.66
2022-12-28T01:02:58.474Z,23.64
2022-12-28T01:03:28.498Z,23.64
2022-12-28T01:03:58.527Z,23.64
2022-12-28T01:04:28.534Z,23.66
2022-12-28T01:04:58.566Z,23.69
2022-12-28T01:05:28.583Z,23.64
2022-12-28T01:05:58.612Z,23.66
2022-12-28T01:06:28.655Z,23.67
2022-12-28T01:06:58.665Z,23.64
2022-12-28T01:07:28.722Z,23.66
2022-12-28T01:07:58.755Z,23.66
2022-12-28T01:08:28.774Z,23.66
2022-12-28T01:08:58.803Z,23.66
2022-12-28T01:09:28.832Z,23.63
2022-12-28T01:09:58.850Z,23.64
2022-12-28T01:10:28.891Z,23.67
2022-12-28T01:10:58.899Z,23.64
2022-12-28T01:11:28.928Z,23.64
2022-12-28T01:11:58.948Z,23.64
2022-12-28T01:12:31.934Z,23.66
2022-12-28T01:12:59.044Z,23.63
2022-12-28T01:13:29.070Z,23.64
2022-12-28T01:13:59.100Z,23.66
2022-12-28T01:14:29.115Z,23.64
2022-12-28T01:14:59.143Z,23.66
2022-12-28T01:15:29.186Z,23.64
2022-12-28T01:15:59.214Z,23.63
2022-12-28T01:16:29.318Z,23.66
2022-12-28T01:16:59.448Z,23.63
2022-12-28T01:17:29.444Z,23.64
2022-12-28T01:17:59.478Z,23.64
2022-12-28T01:18:29.513Z,23.64
2022-12-28T01:18:59.562Z,23.64
2022-12-28T01:19:29.583Z,23.66
2022-12-28T01:19:59.610Z,23.66
2022-12-28T01:20:29.641Z,23.66
2022-12-28T01:20:59.657Z,23.64
2022-12-28T01:21:29.751Z,23.64
2022-12-28T01:21:59.750Z,23.63
2022-12-28T01:22:29.793Z,23.64
2022-12-28T01:22:59.827Z,23.63
2022-12-28T01:23:29.858Z,23.63
2022-12-28T01:23:59.881Z,23.63
2022-12-28T01:24:29.910Z,23.63
2022-12-28T01:24:59.940Z,23.66
2022-12-28T01:25:29.908Z,23.64
2022-12-28T01:26:00.011Z,23.63
2022-12-28T01:26:30.125Z,23.66
2022-12-28T01:27:00.233Z,23.63
2022-12-28T01:27:30.365Z,23.63
2022-12-28T01:28:00.356Z,23.64
2022-12-28T01:28:30.344Z,23.64
2022-12-28T01:29:00.463Z,23.66
2022-12-28T01:29:30.576Z,23.64
2022-12-28T01:30:00.701Z,23.63
2022-12-28T01:30:30.803Z,23.64
2022-12-28T01:31:00.924Z,23.63
2022-12-28T01:31:31.053Z,23.66
2022-12-28T01:32:01.141Z,23.64
2022-12-28T01:32:31.146Z,23.63
2022-12-28T01:33:01.166Z,23.63
2022-12-28T01:33:31.133Z,23.64
2022-12-28T01:34:01.250Z,23.63
2022-12-28T01:34:31.367Z,23.64
2022-12-28T01:35:01.386Z,23.64
2022-12-28T01:35:31.409Z,23.64
2022-12-28T01:36:01.437Z,23.63
2022-12-28T01:36:31.470Z,23.63
2022-12-28T01:37:01.500Z,23.63
2022-12-28T01:37:31.584Z,23.62
2022-12-28T01:38:01.620Z,23.63
2022-12-28T01:38:31.639Z,23.63
2022-12-28T01:39:01.672Z,23.62
2022-12-28T01:39:31.695Z,23.63
2022-12-28T01:40:01.720Z,23.63
2022-12-28T01:40:31.781Z,23.63
2022-12-28T01:41:01.817Z,23.60
2022-12-28T01:41:31.830Z,23.62
2022-12-28T01:42:01.880Z,23.62
2022-12-28T01:42:31.908Z,23.63
2022-12-28T01:43:01.931Z,23.63
2022-12-28T01:43:31.954Z,23.62
2022-12-28T01:44:01.978Z,23.62
2022-12-28T01:44:32.004Z,23.62
2022-12-28T01:45:02.029Z,23.62
2022-12-28T01:45:32.085Z,23.62
2022-12-28T01:46:02.194Z,23.60
2022-12-28T01:46:32.169Z,23.63
2022-12-28T01:47:02.193Z,23.60
2022-12-28T01:47:32.245Z,23.62
2022-12-28T01:48:02.289Z,23.59
2022-12-28T01:48:32.312Z,23.60
2022-12-28T01:49:02.314Z,23.60
2022-12-28T01:49:32.345Z,23.60
2022-12-28T01:50:02.375Z,23.59
2022-12-28T01:50:32.386Z,23.62
2022-12-28T01:51:02.408Z,23.60
2022-12-28T01:51:32.434Z,23.63
2022-12-28T01:52:02.464Z,23.62
2022-12-28T01:52:32.525Z,23.60
2022-12-28T01:53:02.567Z,23.59
2022-12-28T01:53:32.586Z,23.59
2022-12-28T01:54:02.620Z,23.59
2022-12-28T01:54:32.637Z,23.57
2022-12-28T01:55:02.668Z,23.59
2022-12-28T01:55:32.692Z,23.56
2022-12-28T01:56:02.710Z,23.57
2022-12-28T01:56:32.740Z,23.55
2022-12-28T01:57:02.763Z,23.56
2022-12-28T01:57:32.793Z,23.55
2022-12-28T01:58:02.831Z,23.55
2022-12-28T01:58:32.847Z,23.52
2022-12-28T01:59:02.875Z,23.53
2022-12-28T01:59:32.901Z,23.53
2022-12-28T02:00:02.941Z,23.52
2022-12-28T02:00:32.946Z,23.52
2022-12-28T02:01:03.107Z,23.48
2022-12-28T02:01:33.192Z,23.50
2022-12-28T02:02:03.538Z,23.49
2022-12-28T02:02:33.408Z,23.48
2022-12-28T02:03:03.377Z,23.49
2022-12-28T02:03:33.267Z,23.49
2022-12-28T02:04:03.309Z,23.49
2022-12-28T02:04:33.301Z,23.50
2022-12-28T02:05:03.347Z,23.48
2022-12-28T02:05:33.362Z,23.45
2022-12-28T02:06:03.391Z,23.46
2022-12-28T02:06:33.417Z,23.45
2022-12-28T02:07:03.457Z,23.45
2022-12-28T02:07:33.500Z,23.46
2022-12-28T02:08:03.528Z,23.48
2022-12-28T02:08:33.575Z,23.48
2022-12-28T02:09:03.603Z,23.48
2022-12-28T02:09:33.607Z,23.48
2022-12-28T02:10:42.294Z,23.50
2022-12-28T02:10:44.030Z,23.49
2022-12-28T02:11:03.718Z,23.49
2022-12-28T02:11:33.738Z,23.50
2022-12-28T02:12:03.770Z,23.49
2022-12-28T02:12:33.836Z,23.52
2022-12-28T02:13:03.938Z,23.49
2022-12-28T02:13:33.855Z,23.52
2022-12-28T02:14:03.884Z,23.53
2022-12-28T02:14:33.906Z,23.53
2022-12-28T02:15:03.931Z,23.53
2022-12-28T02:15:33.954Z,23.56
2022-12-28T02:16:03.997Z,23.56
2022-12-28T02:16:34.023Z,23.57
2022-12-28T02:17:04.115Z,23.56
2022-12-28T02:17:34.036Z,23.59
2022-12-28T02:18:04.106Z,23.57
2022-12-28T02:18:34.124Z,23.59
2022-12-28T02:19:04.145Z,23.57
2022-12-28T02:19:34.198Z,23.57
2022-12-28T02:20:04.199Z,23.59
2022-12-28T02:20:34.221Z,23.62
2022-12-28T02:21:04.249Z,23.59
2022-12-28T02:21:34.286Z,23.60
2022-12-28T02:22:04.307Z,23.60
2022-12-28T02:22:34.349Z,23.59
2022-12-28T02:23:04.515Z,23.62
2022-12-28T02:23:34.412Z,23.63
2022-12-28T02:24:04.439Z,23.62
2022-12-28T02:24:34.452Z,23.62
2022-12-28T02:25:13.226Z,23.60
2022-12-28T02:25:34.579Z,23.62
2022-12-28T02:26:04.693Z,23.60
2022-12-28T02:26:34.799Z,23.60
2022-12-28T02:27:04.910Z,23.63
2022-12-28T02:27:35.033Z,23.62
2022-12-28T02:28:05.152Z,23.64
2022-12-28T02:28:35.138Z,23.63
2022-12-28T02:29:05.260Z,23.62
2022-12-28T02:29:35.360Z,23.63
2022-12-28T02:30:05.477Z,23.64
2022-12-28T02:30:35.674Z,23.63
2022-12-28T02:31:05.698Z,23.63
2022-12-28T02:31:35.694Z,23.62
2022-12-28T02:32:05.804Z,23.60
2022-12-28T02:32:35.925Z,23.60
2022-12-28T02:33:06.041Z,23.62
2022-12-28T02:33:36.153Z,23.62
2022-12-28T02:34:06.262Z,23.64
2022-12-28T02:34:36.381Z,23.60
2022-12-28T02:35:06.442Z,23.62
2022-12-28T02:35:36.440Z,23.60
2022-12-28T02:36:06.463Z,23.60
2022-12-28T02:36:36.486Z,23.62
2022-12-28T02:37:06.519Z,23.62
2022-12-28T02:37:36.541Z,23.63
2022-12-28T02:38:06.570Z,23.62
2022-12-28T02:38:36.591Z,23.60
2022-12-28T02:39:06.617Z,23.62
2022-12-28T02:39:36.637Z,23.60
2022-12-28T02:40:06.661Z,23.62
2022-12-28T02:40:36.690Z,23.62
2022-12-28T02:41:06.732Z,23.62
2022-12-28T02:41:36.748Z,23.60
2022-12-28T02:42:06.771Z,23.62
2022-12-28T02:42:36.802Z,23.59
2022-12-28T02:43:06.823Z,23.59
2022-12-28T02:43:36.853Z,23.59
2022-12-28T02:44:06.905Z,23.62
2022-12-28T02:44:36.925Z,23.62
2022-12-28T02:45:06.957Z,23.60
2022-12-28T02:45:36.955Z,23.62
2022-12-28T02:46:07.092Z,23.59
2022-12-28T02:46:37.012Z,23.63
2022-12-28T02:47:07.046Z,23.60
2022-12-28T02:47:37.067Z,23.62
2022-12-28T02:48:07.093Z,23.59
2022-12-28T02:48:37.122Z,23.59
2022-12-28T02:49:07.136Z,23.59
2022-12-28T02:49:37.168Z,23.60
2022-12-28T02:50:07.188Z,23.62
2022-12-28T02:50:37.229Z,23.60
2022-12-28T02:51:07.230Z,23.59
2022-12-28T02:51:37.285Z,23.60
2022-12-28T02:52:07.305Z,23.59
2022-12-28T02:52:37.327Z,23.60
2022-12-28T02:53:07.348Z,23.60
2022-12-28T02:53:37.395Z,23.62
2022-12-28T02:54:07.421Z,23.62
2022-12-28T02:54:37.457Z,23.60
2022-12-28T02:55:07.466Z,23.59
2022-12-28T02:55:37.492Z,23.60
2022-12-28T02:56:07.519Z,23.60
2022-12-28T02:56:37.549Z,23.60
2022-12-28T02:57:07.581Z,23.60
2022-12-28T02:57:37.606Z,23.59
2022-12-28T02:58:07.632Z,23.60
2022-12-28T02:58:37.687Z,23.60
2022-12-28T02:59:07.704Z,23.59
2022-12-28T02:59:37.732Z,23.60
2022-12-28T03:00:07.760Z,23.62
2022-12-28T03:00:37.784Z,23.60
2022-12-28T03:01:07.950Z,23.62
2022-12-28T03:01:37.977Z,23.60
2022-12-28T03:02:08.136Z,23.60
2022-12-28T03:02:38.149Z,23.60
2022-12-28T03:03:08.079Z,23.60
2022-12-28T03:03:38.014Z,23.59
2022-12-28T03:04:08.034Z,23.60
2022-12-28T03:04:38.059Z,23.60
2022-12-28T03:05:08.122Z,23.59
2022-12-28T03:05:38.176Z,23.59
2022-12-28T03:06:08.216Z,23.60
2022-12-28T03:06:38.218Z,23.60
2022-12-28T03:07:08.238Z,23.60
2022-12-28T03:07:38.282Z,23.60
2022-12-28T03:08:08.285Z,23.60
2022-12-28T03:08:38.309Z,23.62
2022-12-28T03:09:08.326Z,23.62
2022-12-28T03:09:38.369Z,23.63
2022-12-28T03:10:08.374Z,23.60
2022-12-28T03:10:38.395Z,23.63
2022-12-28T03:11:08.437Z,23.62
2022-12-28T03:11:38.477Z,23.62
2022-12-28T03:12:08.488Z,23.60
2022-12-28T03:12:38.512Z,23.60
2022-12-28T03:13:08.540Z,23.60
2022-12-28T03:13:38.560Z,23.60
2022-12-28T03:14:08.589Z,23.60
2022-12-28T03:14:38.630Z,23.60
2022-12-28T03:15:08.638Z,23.60
2022-12-28T03:15:38.719Z,23.59
2022-12-28T03:16:08.822Z,23.60
2022-12-28T03:16:38.848Z,23.59
2022-12-28T03:17:08.878Z,23.60
2022-12-28T03:17:38.897Z,23.62
2022-12-28T03:18:08.927Z,23.59
2022-12-28T03:18:38.947Z,23.59
2022-12-28T03:19:08.977Z,23.60
2022-12-28T03:19:39.004Z,23.60
2022-12-28T03:20:09.031Z,23.62
2022-12-28T03:20:39.056Z,23.60
2022-12-28T03:21:09.106Z,23.59
2022-12-28T03:21:39.147Z,23.59
2022-12-28T03:22:09.164Z,23.60
2022-12-28T03:22:39.182Z,23.60
2022-12-28T03:23:09.200Z,23.62
2022-12-28T03:23:39.223Z,23.62
2022-12-28T03:24:09.254Z,23.60
2022-12-28T03:24:39.267Z,23.59
2022-12-28T03:25:09.389Z,23.60
2022-12-28T03:25:39.499Z,23.60
2022-12-28T03:26:09.611Z,23.60
2022-12-28T03:26:39.609Z,23.59
2022-12-28T03:27:09.600Z,23.62
2022-12-28T03:27:39.710Z,23.60
2022-12-28T03:28:09.819Z,23.59
2022-12-28T03:28:39.945Z,23.60
2022-12-28T03:29:10.072Z,23.62
2022-12-28T03:29:40.064Z,23.62
2022-12-28T03:30:10.172Z,23.62
2022-12-28T03:30:40.520Z,23.62
2022-12-28T03:31:10.339Z,23.60
2022-12-28T03:31:40.318Z,23.62
2022-12-28T03:32:10.442Z,23.60
2022-12-28T03:32:40.429Z,23.62
2022-12-28T03:33:10.540Z,23.60
2022-12-28T03:33:40.669Z,23.60
2022-12-28T03:34:10.766Z,23.63
2022-12-28T03:34:40.768Z,23.60
2022-12-28T03:35:10.813Z,23.62
2022-12-28T03:35:40.823Z,23.62
2022-12-28T03:36:10.847Z,23.60
2022-12-28T03:36:40.901Z,23.59
2022-12-28T03:37:10.910Z,23.63
2022-12-28T03:37:40.936Z,23.63
2022-12-28T03:38:10.961Z,23.60
2022-12-28T03:38:40.988Z,23.62
2022-12-28T03:39:11.018Z,23.62
2022-12-28T03:39:41.042Z,23.60
2022-12-28T03:40:11.068Z,23.62
2022-12-28T03:40:41.092Z,23.60
2022-12-28T03:41:11.122Z,23.63
2022-12-28T03:41:41.165Z,23.60
2022-12-28T03:42:11.188Z,23.60
2022-12-28T03:42:41.208Z,23.62
2022-12-28T03:43:11.230Z,23.63
2022-12-28T03:43:41.293Z,23.63
2022-12-28T03:44:11.313Z,23.63
2022-12-28T03:44:41.341Z,23.63
2022-12-28T03:45:11.365Z,23.63
2022-12-28T03:45:45.411Z,23.63
2022-12-28T03:46:11.429Z,23.64
2022-12-28T03:46:41.541Z,23.63
2022-12-28T03:47:11.593Z,23.63
2022-12-28T03:47:41.605Z,23.64
2022-12-28T03:48:11.650Z,23.64
2022-12-28T03:48:41.680Z,23.63
2022-12-28T03:49:11.702Z,23.64
2022-12-28T03:49:41.724Z,23.64
2022-12-28T03:50:11.758Z,23.63
2022-12-28T03:50:41.777Z,23.62
2022-12-28T03:51:11.803Z,23.66
2022-12-28T03:51:41.844Z,23.64
2022-12-28T03:52:11.892Z,23.63
2022-12-28T03:52:41.898Z,23.63
2022-12-28T03:53:11.936Z,23.64
2022-12-28T03:53:41.958Z,23.63
2022-12-28T03:54:11.970Z,23.64
2022-12-28T03:54:42.003Z,23.64
2022-12-28T03:55:12.025Z,23.66
2022-12-28T03:55:42.059Z,23.66
2022-12-28T03:56:12.105Z,23.67
2022-12-28T03:56:42.227Z,23.66
2022-12-28T03:57:12.104Z,23.67
2022-12-28T03:57:42.136Z,23.64
2022-12-28T03:58:12.175Z,23.64
2022-12-28T03:58:42.217Z,23.64
2022-12-28T03:59:12.235Z,23.66
2022-12-28T03:59:42.267Z,23.64
2022-12-28T04:00:12.301Z,23.66
2022-12-28T04:00:42.328Z,23.64
2022-12-28T04:01:12.518Z,23.66
2022-12-28T04:01:42.528Z,23.66
2022-12-28T04:02:12.525Z,23.64
2022-12-28T04:02:42.425Z,23.67
2022-12-28T04:03:12.505Z,23.67
2022-12-28T04:03:42.523Z,23.67
2022-12-28T04:04:12.575Z,23.67
2022-12-28T04:04:42.592Z,23.66
2022-12-28T04:05:12.618Z,23.66
2022-12-28T04:05:42.649Z,23.67
2022-12-28T04:06:12.666Z,23.64
2022-12-28T04:06:42.697Z,23.70
2022-12-28T04:07:12.716Z,23.67
2022-12-28T04:07:42.769Z,23.66
2022-12-28T04:08:12.773Z,23.66
2022-12-28T04:08:42.801Z,23.66
2022-12-28T04:09:12.838Z,23.66
2022-12-28T04:09:42.861Z,23.64
2022-12-28T04:10:12.888Z,23.64
2022-12-28T04:10:42.918Z,23.64
2022-12-28T04:11:12.961Z,23.63
2022-12-28T04:11:42.985Z,23.63
2022-12-28T04:12:13.007Z,23.63
2022-12-28T04:12:43.035Z,23.63
2022-12-28T04:13:13.053Z,23.60
2022-12-28T04:13:43.082Z,23.62
2022-12-28T04:14:13.102Z,23.62
2022-12-28T04:14:43.127Z,23.63
2022-12-28T04:15:13.200Z,23.62
2022-12-28T04:15:43.271Z,23.60
2022-12-28T04:16:13.347Z,23.60
2022-12-28T04:16:43.367Z,23.60
2022-12-28T04:17:13.376Z,23.62
2022-12-28T04:17:43.432Z,23.60
2022-12-28T04:18:13.453Z,23.60
2022-12-28T04:18:43.479Z,23.63
2022-12-28T04:19:13.501Z,23.62
2022-12-28T04:19:43.526Z,23.59
2022-12-28T04:20:13.556Z,23.60
2022-12-28T04:20:43.573Z,23.63
2022-12-28T04:21:13.614Z,23.60
2022-12-28T04:21:43.656Z,23.59
2022-12-28T04:22:13.665Z,23.57
2022-12-28T04:22:43.694Z,23.60
2022-12-28T04:23:13.738Z,23.62
2022-12-28T04:23:43.743Z,23.59
2022-12-28T04:24:13.776Z,23.60
2022-12-28T04:24:43.779Z,23.60
2022-12-28T04:25:13.768Z,23.62
2022-12-28T04:25:43.881Z,23.60
2022-12-28T04:26:14.007Z,23.60
2022-12-28T04:26:44.109Z,23.62
2022-12-28T04:27:14.238Z,23.60
2022-12-28T04:27:44.336Z,23.60
2022-12-28T04:28:14.441Z,23.59
2022-12-28T04:28:44.549Z,23.62
2022-12-28T04:29:14.663Z,23.63
2022-12-28T04:29:44.738Z,23.62
2022-12-28T04:30:14.732Z,23.62
2022-12-28T04:30:44.843Z,23.63
2022-12-28T04:31:14.991Z,23.63
2022-12-28T04:31:45.056Z,23.62
2022-12-28T04:32:15.037Z,23.64
2022-12-28T04:32:45.156Z,23.62
2022-12-28T04:33:15.272Z,23.62
2022-12-28T04:33:45.411Z,23.60
2022-12-28T04:34:15.373Z,23.63
2022-12-28T04:34:48.783Z,23.62
2022-12-28T04:35:15.450Z,23.60
2022-12-28T04:35:45.475Z,23.62
2022-12-28T04:36:15.498Z,23.62
2022-12-28T04:36:45.530Z,23.63
2022-12-28T04:37:15.555Z,23.62
2022-12-28T04:37:45.624Z,23.63
2022-12-28T04:38:15.662Z,23.64
2022-12-28T04:38:45.664Z,23.64
2022-12-28T04:39:15.689Z,23.63
2022-12-28T04:39:54.941Z,23.67
2022-12-28T04:40:15.761Z,23.66
2022-12-28T04:40:45.788Z,23.66
2022-12-28T04:41:15.807Z,23.66
2022-12-28T04:41:45.838Z,23.66
2022-12-28T04:42:15.856Z,23.66
2022-12-28T04:42:45.875Z,23.66
2022-12-28T04:43:15.911Z,23.64
2022-12-28T04:43:45.924Z,23.63
2022-12-28T04:44:15.951Z,23.64
2022-12-28T04:44:46.006Z,23.64
2022-12-28T04:45:21.758Z,23.64
2022-12-28T04:45:46.076Z,23.66
2022-12-28T04:46:16.151Z,23.64
2022-12-28T04:46:46.246Z,23.66
2022-12-28T04:47:16.303Z,23.66
2022-12-28T04:47:46.304Z,23.64
2022-12-28T04:48:16.330Z,23.66
2022-12-28T04:48:46.365Z,23.64
2022-12-28T04:49:16.392Z,23.66
2022-12-28T04:49:46.430Z,23.64
2022-12-28T04:50:16.457Z,23.67
2022-12-28T04:50:46.522Z,23.66
2022-12-28T04:51:16.547Z,23.66
2022-12-28T04:51:46.573Z,23.67
2022-12-28T04:52:16.590Z,23.67
2022-12-28T04:52:46.623Z,23.66
2022-12-28T04:53:16.646Z,23.67
2022-12-28T04:53:46.691Z,23.67
2022-12-28T04:54:16.692Z,23.67
2022-12-28T04:54:46.744Z,23.67
2022-12-28T04:55:32.053Z,23.69
2022-12-28T04:55:46.801Z,23.69
2022-12-28T04:56:16.831Z,23.66
2022-12-28T04:56:46.856Z,23.67
2022-12-28T04:57:16.873Z,23.67
2022-12-28T04:57:46.899Z,23.67
2022-12-28T04:58:16.924Z,23.69
2022-12-28T04:58:47.006Z,23.69
2022-12-28T04:59:17.021Z,23.66
2022-12-28T04:59:47.087Z,23.67
2022-12-28T05:00:17.117Z,23.67
2022-12-28T05:00:47.146Z,23.66
2022-12-28T05:01:17.294Z,23.67
2022-12-28T05:01:47.327Z,23.69
2022-12-28T05:02:17.387Z,23.69
2022-12-28T05:02:47.467Z,23.66
2022-12-28T05:03:17.339Z,23.64
2022-12-28T05:03:54.472Z,23.64
2022-12-28T05:04:17.410Z,23.64
2022-12-28T05:04:47.439Z,23.64
2022-12-28T05:05:17.476Z,23.64
2022-12-28T05:05:47.496Z,23.64
2022-12-28T05:06:17.522Z,23.64
2022-12-28T05:06:47.571Z,23.63
2022-12-28T05:07:17.594Z,23.64
2022-12-28T05:07:47.620Z,23.64
2022-12-28T05:08:17.649Z,23.66
2022-12-28T05:08:47.667Z,23.63
2022-12-28T05:09:17.729Z,23.63
2022-12-28T05:09:47.723Z,23.64
2022-12-28T05:10:17.751Z,23.63
2022-12-28T05:10:47.778Z,23.66
2022-12-28T05:11:17.802Z,23.64
2022-12-28T05:11:47.845Z,23.64
2022-12-28T05:12:17.871Z,23.63
2022-12-28T05:12:47.899Z,23.66
2022-12-28T05:13:17.929Z,23.64
2022-12-28T05:13:47.955Z,23.63
2022-12-28T05:14:17.987Z,23.64
2022-12-28T05:14:47.999Z,23.66
2022-12-28T05:15:18.054Z,23.63
2022-12-28T05:15:48.155Z,23.64
2022-12-28T05:16:18.212Z,23.63
2022-12-28T05:16:48.239Z,23.64
2022-12-28T05:17:18.267Z,23.64
2022-12-28T05:17:48.294Z,23.64
2022-12-28T05:18:18.316Z,23.66
2022-12-28T05:18:48.358Z,23.63
2022-12-28T05:19:18.366Z,23.64
2022-12-28T05:19:48.396Z,23.64
2022-12-28T05:20:18.417Z,23.64
2022-12-28T05:20:48.443Z,23.63
2022-12-28T05:21:18.498Z,23.64
2022-12-28T05:21:48.522Z,23.63
2022-12-28T05:22:18.547Z,23.66
2022-12-28T05:22:48.588Z,23.64
2022-12-28T05:23:18.606Z,23.64
2022-12-28T05:23:48.634Z,23.66
2022-12-28T05:24:18.649Z,23.66
2022-12-28T05:24:48.672Z,23.64
2022-12-28T05:25:18.792Z,23.64
2022-12-28T05:25:48.814Z,23.69
2022-12-28T05:26:18.822Z,23.64
2022-12-28T05:26:48.928Z,23.66
2022-12-28T05:27:19.043Z,23.66
2022-12-28T05:27:49.145Z,23.66
2022-12-28T05:28:19.258Z,23.64
2022-12-28T05:28:49.370Z,23.67
2022-12-28T05:29:19.487Z,23.66
2022-12-28T05:29:49.595Z,23.66
2022-12-28T05:30:19.750Z,23.66
2022-12-28T05:30:49.741Z,23.66
2022-12-28T05:31:19.895Z,23.69
2022-12-28T05:31:49.862Z,23.66
2022-12-28T05:32:19.972Z,23.64
2022-12-28T05:32:50.078Z,23.64
2022-12-28T05:33:20.201Z,23.64
2022-12-28T05:33:50.377Z,23.66
2022-12-28T05:34:20.329Z,23.64
2022-12-28T05:34:50.348Z,23.63
2022-12-28T05:35:20.368Z,23.62
2022-12-28T05:35:50.405Z,23.66
2022-12-28T05:36:20.448Z,23.64
2022-12-28T05:36:50.475Z,23.66
2022-12-28T05:37:22.343Z,23.64
2022-12-28T05:37:50.587Z,23.64
2022-12-28T05:38:20.623Z,23.66
2022-12-28T05:38:50.644Z,23.64
2022-12-28T05:39:20.670Z,23.64
2022-12-28T05:39:50.751Z,23.66
2022-12-28T05:40:20.747Z,23.64
2022-12-28T05:40:50.771Z,23.64
2022-12-28T05:41:20.804Z,23.63
2022-12-28T05:41:50.837Z,23.62
2022-12-28T05:42:20.860Z,23.63
2022-12-28T05:42:51.735Z,23.63
2022-12-28T05:43:20.996Z,23.66
2022-12-28T05:43:51.020Z,23.66
2022-12-28T05:44:21.048Z,23.63
2022-12-28T05:44:51.060Z,23.64
2022-12-28T05:45:21.090Z,23.64
2022-12-28T05:45:51.124Z,23.66
2022-12-28T05:46:21.271Z,23.63
2022-12-28T05:46:51.292Z,23.63
2022-12-28T05:47:21.332Z,23.63
2022-12-28T05:47:51.359Z,23.63
2022-12-28T05:48:21.382Z,23.62
2022-12-28T05:48:51.442Z,23.62
2022-12-28T05:49:21.450Z,23.63
2022-12-28T05:49:51.474Z,23.60
2022-12-28T05:50:21.502Z,23.60
2022-12-28T05:50:54.838Z,23.62
2022-12-28T05:51:21.603Z,23.62
2022-12-28T05:51:51.628Z,23.60
2022-12-28T05:52:21.644Z,23.59
2022-12-28T05:52:51.663Z,23.60
2022-12-28T05:53:21.686Z,23.59
2022-12-28T05:53:51.710Z,23.59
2022-12-28T05:54:21.731Z,23.59
2022-12-28T05:54:51.758Z,23.62
2022-12-28T05:55:21.809Z,23.59
2022-12-28T05:55:51.840Z,23.60
2022-12-28T05:56:21.859Z,23.62
2022-12-28T05:56:51.884Z,23.62
2022-12-28T05:57:21.908Z,23.62
2022-12-28T05:57:51.926Z,23.60
2022-12-28T05:58:21.949Z,23.60
2022-12-28T05:58:51.969Z,23.60
2022-12-28T05:59:22.004Z,23.63
2022-12-28T05:59:52.031Z,23.62
2022-12-28T06:00:22.058Z,23.62
2022-12-28T06:00:52.086Z,23.63
2022-12-28T06:01:22.183Z,23.62
2022-12-28T06:01:52.395Z,23.63
2022-12-28T06:02:24.824Z,23.63
2022-12-28T06:02:52.279Z,23.62
2022-12-28T06:03:22.345Z,23.60
2022-12-28T06:03:52.323Z,23.62
2022-12-28T06:04:22.336Z,23.63
2022-12-28T06:04:52.354Z,23.62
2022-12-28T06:05:22.380Z,23.62
2022-12-28T06:05:52.428Z,23.63
2022-12-28T06:06:22.450Z,23.62
2022-12-28T06:06:52.468Z,23.60
2022-12-28T06:07:22.495Z,23.64
2022-12-28T06:07:52.517Z,23.63
2022-12-28T06:08:22.923Z,23.64
2022-12-28T06:08:52.545Z,23.60
2022-12-28T06:09:22.573Z,23.63
2022-12-28T06:09:52.611Z,23.63
2022-12-28T06:10:22.617Z,23.60
2022-12-28T06:10:52.666Z,23.60
2022-12-28T06:11:22.683Z,23.60
2022-12-28T06:11:52.724Z,23.62
2022-12-28T06:12:22.748Z,23.60
2022-12-28T06:12:52.771Z,23.62
2022-12-28T06:13:22.826Z,23.60
2022-12-28T06:13:52.852Z,23.60
2022-12-28T06:14:22.879Z,23.59
2022-12-28T06:14:52.902Z,23.57
2022-12-28T06:15:22.922Z,23.60
2022-12-28T06:15:52.967Z,23.60
2022-12-28T06:16:23.018Z,23.59
2022-12-28T06:16:53.174Z,23.59
2022-12-28T06:17:23.104Z,23.57
2022-12-28T06:17:53.126Z,23.59
2022-12-28T06:18:23.155Z,23.59
2022-12-28T06:18:53.184Z,23.59
2022-12-28T06:19:23.203Z,23.60
2022-12-28T06:19:53.227Z,23.57
2022-12-28T06:20:23.247Z,23.60
2022-12-28T06:20:57.010Z,23.56
2022-12-28T06:21:23.341Z,23.57
2022-12-28T06:21:53.351Z,23.59
2022-12-28T06:22:23.385Z,23.59
2022-12-28T06:22:53.398Z,23.57
2022-12-28T06:23:23.423Z,23.59
2022-12-28T06:23:53.444Z,23.59
2022-12-28T06:24:23.474Z,23.57
2022-12-28T06:24:53.590Z,23.57
2022-12-28T06:25:23.713Z,23.59
2022-12-28T06:25:53.837Z,23.57
2022-12-28T06:26:23.968Z,23.57
2022-12-28T06:26:54.058Z,23.59